createdAt,value
2023-04-14T00:00:23.630Z,2.4
2023-04-14T00:01:38.039Z,2.5
2023-04-14T00:02:52.448Z,2.3
2023-04-14T00:04:06.771Z,2.5
2023-04-14T00:05:21.050Z,2.8
2023-04-14T00:06:35.459Z,2.6
2023-04-14T00:07:49.871Z,2.5
2023-04-14T00:09:04.208Z,2.5
2023-04-14T00:10:18.490Z,2.6
2023-04-14T00:11:32.904Z,2.8
2023-04-14T00:12:47.322Z,2.9
2023-04-14T00:14:01.633Z,2.4
2023-04-14T00:15:15.917Z,2.5
2023-04-14T00:16:30.337Z,2.5
2023-04-14T00:17:44.746Z,2.6
2023-04-14T00:18:59.062Z,2.5
2023-04-14T00:20:13.349Z,2.4
2023-04-14T00:21:27.753Z,2.7
2023-04-14T00:22:42.156Z,2.2
2023-04-14T00:23:56.488Z,2.6
2023-04-14T00:25:10.770Z,2.8
2023-04-14T00:26:25.047Z,2.6
2023-04-14T00:27:39.447Z,2.6
2023-04-14T00:28:53.771Z,3
2023-04-14T00:30:08.052Z,3.3
2023-04-14T00:31:22.350Z,2.3
2023-04-14T00:32:36.743Z,3.3
2023-04-14T00:33:51.080Z,2.8
2023-04-14T00:35:05.359Z,2.8
2023-04-14T00:36:19.629Z,2.4
2023-04-14T00:37:34.043Z,2.6
2023-04-14T00:38:48.375Z,3.4
2023-04-14T00:40:02.645Z,2.6
2023-04-14T00:41:16.936Z,3.1
2023-04-14T00:42:31.332Z,2.5
2023-04-14T00:43:45.656Z,3.6
2023-04-14T00:44:59.944Z,2.7
2023-04-14T00:46:14.212Z,3.4
2023-04-14T00:47:28.622Z,2.7
2023-04-14T00:48:42.956Z,3.2
2023-04-14T00:51:11.516Z,3.1
2023-04-14T00:52:25.927Z,2.7
2023-04-14T00:53:40.235Z,2.5
2023-04-14T00:54:54.517Z,2.8
2023-04-14T00:56:08.951Z,2.7
2023-04-14T00:57:23.350Z,3.3
2023-04-14T00:58:37.674Z,3
2023-04-14T00:59:51.957Z,3.5
2023-04-14T01:01:06.251Z,2.8
2023-04-14T01:02:20.639Z,3.1
2023-04-14T01:03:34.971Z,2.5
2023-04-14T01:04:49.390Z,2.8
2023-04-14T01:06:03.725Z,2.9
2023-04-14T01:07:18.003Z,2.6
2023-04-14T01:08:32.419Z,3
2023-04-14T01:09:46.742Z,3.5
2023-04-14T01:11:01.139Z,3.2
2023-04-14T01:12:15.462Z,3
2023-04-14T01:13:29.741Z,2.8
2023-04-14T01:14:44.144Z,3.5
2023-04-14T01:15:58.472Z,2.8
2023-04-14T01:17:12.761Z,3.2
2023-04-14T01:18:27.044Z,2.7
2023-04-14T01:19:41.440Z,2.8
2023-04-14T01:20:55.774Z,2.5
2023-04-14T01:22:10.046Z,3
2023-04-14T01:23:24.329Z,2.9
2023-04-14T01:24:38.749Z,3.1
2023-04-14T01:25:53.070Z,2.6
2023-04-14T01:27:07.349Z,2.7
2023-04-14T01:28:21.739Z,3.4
2023-04-14T01:29:36.149Z,2.5
2023-04-14T01:30:50.490Z,2.7
2023-04-14T01:32:04.767Z,3.1
2023-04-14T01:33:19.190Z,3.6
2023-04-14T01:34:33.594Z,2.4
2023-04-14T01:35:47.923Z,3.4
2023-04-14T01:37:02.209Z,2.5
2023-04-14T01:38:16.633Z,3.7
2023-04-14T01:39:31.043Z,2.7
2023-04-14T01:40:45.351Z,2.6
2023-04-14T01:41:59.646Z,2.6
2023-04-14T01:43:13.927Z,3.1
2023-04-14T01:44:28.337Z,2.2
2023-04-14T01:45:42.664Z,3.3
2023-04-14T01:46:56.934Z,2.9
2023-04-14T01:48:11.214Z,3
2023-04-14T01:49:25.617Z,2.9
2023-04-14T01:50:39.960Z,2.5
2023-04-14T01:51:54.235Z,3.2
2023-04-14T01:53:08.632Z,3
2023-04-14T01:54:23.037Z,3.5
2023-04-14T01:56:51.653Z,2.8
2023-04-14T01:58:05.939Z,2.8
2023-04-14T01:59:20.345Z,2.6
2023-04-14T02:00:34.669Z,2.6
2023-04-14T02:01:48.949Z,2.8
2023-04-14T02:03:03.269Z,2.7
2023-04-14T02:04:17.548Z,3.1
2023-04-14T02:05:31.958Z,3.4
2023-04-14T02:06:46.286Z,2.9
2023-04-14T02:08:00.566Z,2.9
2023-04-14T02:09:14.845Z,2.7
2023-04-14T02:10:29.251Z,2.6
2023-04-14T02:11:43.582Z,3.5
2023-04-14T02:12:57.858Z,2.9
2023-04-14T02:14:12.138Z,3.1
2023-04-14T02:15:26.561Z,3.2
2023-04-14T02:16:40.877Z,2.6
2023-04-14T02:17:55.152Z,2.5
2023-04-14T02:19:09.430Z,2.9
2023-04-14T02:20:23.838Z,3.1
2023-04-14T02:21:38.169Z,2.6
2023-04-14T02:22:52.595Z,3.1
2023-04-14T02:24:06.930Z,3
2023-04-14T02:25:21.194Z,2.2
2023-04-14T02:26:35.609Z,3.5
2023-04-14T02:27:49.932Z,2.9
2023-04-14T02:29:04.227Z,3.6
2023-04-14T02:30:18.646Z,3.2
2023-04-14T02:31:33.050Z,2.9
2023-04-14T02:34:01.657Z,2.8
2023-04-14T02:35:15.929Z,2.7
2023-04-14T02:36:30.336Z,2.9
2023-04-14T02:37:44.677Z,2.8
2023-04-14T02:38:58.952Z,2.4
2023-04-14T02:40:13.234Z,3.3
2023-04-14T02:41:27.635Z,3.6
2023-04-14T02:42:41.954Z,3.2
2023-04-14T02:43:56.243Z,3.1
2023-04-14T02:45:10.526Z,2.8
2023-04-14T02:46:24.937Z,2.8
2023-04-14T02:47:39.222Z,3.8
2023-04-14T02:48:53.516Z,3.2
2023-04-14T02:50:07.859Z,3.7
2023-04-14T02:52:36.581Z,2.9
2023-04-14T02:53:50.881Z,3.2
2023-04-14T02:55:05.180Z,2.9
2023-04-14T02:56:19.457Z,3
2023-04-14T02:57:33.850Z,3.9
2023-04-14T02:58:48.183Z,2.8
2023-04-14T03:00:02.607Z,3.5
2023-04-14T03:01:16.925Z,2.8
2023-04-14T03:02:31.334Z,2.8
2023-04-14T03:03:45.740Z,3.2
2023-04-14T03:05:00.065Z,2.8
2023-04-14T03:06:14.341Z,3.1
2023-04-14T03:07:28.773Z,2.7
2023-04-14T03:08:43.168Z,3.2
2023-04-14T03:11:11.788Z,2.4
2023-04-14T03:12:26.189Z,3.8
2023-04-14T03:13:40.586Z,3.3
2023-04-14T03:14:54.911Z,2.6
2023-04-14T03:16:09.188Z,3.5
2023-04-14T03:17:23.486Z,2.9
2023-04-14T03:18:37.887Z,2.9
2023-04-14T03:19:52.207Z,3.1
2023-04-14T03:21:06.489Z,3.3
2023-04-14T03:22:20.776Z,3.3
2023-04-14T03:23:35.181Z,2.6
2023-04-14T03:24:49.489Z,2.6
2023-04-14T03:26:03.777Z,2.8
2023-04-14T03:27:18.060Z,2.9
2023-04-14T03:28:32.457Z,2.5
2023-04-14T03:29:46.787Z,3.5
2023-04-14T03:31:01.079Z,2.4
2023-04-14T03:32:15.476Z,2.8
2023-04-14T03:33:29.880Z,2.7
2023-04-14T03:34:44.215Z,2.9
2023-04-14T03:35:58.495Z,3.1
2023-04-14T03:37:12.758Z,3.6
2023-04-14T03:38:27.166Z,2.9
2023-04-14T03:39:41.503Z,3.1
2023-04-14T03:40:55.773Z,3.4
2023-04-14T03:42:10.052Z,3.1
2023-04-14T03:43:24.459Z,3.1
2023-04-14T03:44:38.795Z,3.6
2023-04-14T03:47:07.354Z,3.1
2023-04-14T03:48:21.751Z,3.4
2023-04-14T03:49:36.087Z,3
2023-04-14T03:50:50.365Z,3.1
2023-04-14T03:52:04.655Z,3.9
2023-04-14T03:53:19.050Z,3.3
2023-04-14T03:54:33.367Z,2.9
2023-04-14T03:55:47.661Z,2.9
2023-04-14T03:57:01.888Z,3.2
2023-04-14T03:58:16.181Z,3.4
2023-04-14T03:59:30.421Z,3.3
2023-04-14T04:00:44.788Z,3.4
2023-04-14T04:01:59.014Z,3.6
2023-04-14T04:03:13.295Z,3.2
2023-04-14T04:04:27.659Z,2.7
2023-04-14T04:05:41.897Z,3.3
2023-04-14T04:06:56.273Z,3
2023-04-14T04:08:10.498Z,3.3
2023-04-14T04:09:24.848Z,3.8
2023-04-14T04:10:39.138Z,3.4
2023-04-14T04:11:53.382Z,3.5
2023-04-14T04:13:07.623Z,2.9
2023-04-14T04:14:21.844Z,3.2
2023-04-14T04:15:36.070Z,3.2
2023-04-14T04:16:50.365Z,2.7
2023-04-14T04:18:04.618Z,3.9
2023-04-14T04:19:18.832Z,3.1
2023-04-14T04:20:33.059Z,2.8
2023-04-14T04:21:47.289Z,3
2023-04-14T04:23:01.588Z,3.1
2023-04-14T04:24:15.825Z,3.3
2023-04-14T04:25:30.061Z,3.4
2023-04-14T04:26:44.409Z,4
2023-04-14T04:27:58.627Z,3.3
2023-04-14T04:29:12.944Z,3.4
2023-04-14T04:30:27.172Z,3.3
2023-04-14T04:31:41.399Z,3.4
2023-04-14T04:32:55.629Z,3.4
2023-04-14T04:34:10.006Z,3.4
2023-04-14T04:35:24.311Z,2.8
2023-04-14T04:36:38.543Z,3.8
2023-04-14T04:37:52.767Z,3.1
2023-04-14T04:39:07.138Z,3.4
2023-04-14T04:40:21.490Z,3.8
2023-04-14T04:41:35.796Z,3.8
2023-04-14T04:44:04.253Z,3.1
2023-04-14T04:45:18.486Z,3.6
2023-04-14T04:46:32.707Z,3.2
2023-04-14T04:47:47.014Z,3.6
2023-04-14T04:49:01.260Z,4
2023-04-14T04:50:15.478Z,3.6
2023-04-14T04:51:29.715Z,2.9
2023-04-14T04:52:43.947Z,3
2023-04-14T04:53:58.249Z,4.1
2023-04-14T04:55:12.490Z,3.3
2023-04-14T04:56:26.825Z,3.1
2023-04-14T04:57:41.060Z,3.3
2023-04-14T04:58:55.280Z,3.2
2023-04-14T05:00:09.579Z,3
2023-04-14T05:01:23.839Z,3.8
2023-04-14T05:02:38.051Z,2.7
2023-04-14T05:03:52.291Z,3.4
2023-04-14T05:05:06.509Z,3.6
2023-04-14T05:06:20.818Z,3.5
2023-04-14T05:07:35.062Z,3.2
2023-04-14T05:08:49.433Z,3.8
2023-04-14T05:10:03.646Z,3.4
2023-04-14T05:11:17.888Z,3.3
2023-04-14T05:12:32.177Z,3.6
2023-04-14T05:13:46.422Z,3.4
2023-04-14T05:15:00.654Z,3.1
2023-04-14T05:16:14.877Z,4
2023-04-14T05:17:29.096Z,3.4
2023-04-14T05:18:43.395Z,3.5
2023-04-14T05:19:57.651Z,3.8
2023-04-14T05:21:11.881Z,3.4
2023-04-14T05:22:26.097Z,4.1
2023-04-14T05:24:54.615Z,3.4
2023-04-14T05:26:08.863Z,4.1
2023-04-14T05:27:23.094Z,4.1
2023-04-14T05:28:37.466Z,4.8
2023-04-14T05:29:51.688Z,4.2
2023-04-14T05:31:05.986Z,3.5
2023-04-14T05:32:20.224Z,3.6
2023-04-14T05:33:34.581Z,4.6
2023-04-14T05:34:48.808Z,3.8
2023-04-14T05:36:03.042Z,4
2023-04-14T05:38:31.568Z,3.8
2023-04-14T05:39:45.794Z,4.8
2023-04-14T05:41:00.022Z,4.2
2023-04-14T05:42:14.266Z,4.5
2023-04-14T05:43:28.555Z,4
2023-04-14T05:44:42.804Z,4.3
2023-04-14T05:45:57.017Z,3.9
2023-04-14T05:47:11.256Z,3.9
2023-04-14T05:48:25.472Z,4
2023-04-14T05:49:39.778Z,4.2
2023-04-14T05:50:54.032Z,4.4
2023-04-14T05:53:22.472Z,4.2
2023-04-14T05:54:36.708Z,4.2
2023-04-14T05:55:51.010Z,3.5
2023-04-14T05:57:05.246Z,3.6
2023-04-14T05:58:19.476Z,4.4
2023-04-14T05:59:33.709Z,4
2023-04-14T06:00:48.068Z,3.9
2023-04-14T06:02:02.363Z,3.8
2023-04-14T06:03:16.611Z,4
2023-04-14T06:04:30.839Z,4.6
2023-04-14T06:05:45.217Z,4.1
2023-04-14T06:06:59.444Z,4.2
2023-04-14T06:08:13.736Z,4.5
2023-04-14T06:09:27.992Z,3.9
2023-04-14T06:10:42.217Z,3.7
2023-04-14T06:11:56.443Z,3.6
2023-04-14T06:13:10.670Z,3.7
2023-04-14T06:14:24.972Z,5.1
2023-04-14T06:15:39.198Z,3.2
2023-04-14T06:16:53.433Z,4.6
2023-04-14T06:18:07.654Z,4
2023-04-14T06:19:21.887Z,3.4
2023-04-14T06:20:36.196Z,4.1
2023-04-14T06:21:50.424Z,3.8
2023-04-14T06:23:04.772Z,3.1
2023-04-14T06:24:19.003Z,3.2
2023-04-14T06:26:47.524Z,3.1
2023-04-14T06:28:01.782Z,3.2
2023-04-14T06:29:16.000Z,3.4
2023-04-14T06:31:44.450Z,3.7
2023-04-14T06:32:58.755Z,3.1
2023-04-14T06:34:13.007Z,3.5
2023-04-14T06:35:27.217Z,3.1
2023-04-14T06:36:41.462Z,3.5
2023-04-14T06:37:55.672Z,3
2023-04-14T06:39:09.988Z,4
2023-04-14T06:40:24.213Z,3.1
2023-04-14T06:41:38.459Z,3
2023-04-14T06:42:52.813Z,3.2
2023-04-14T06:44:07.054Z,2.8
2023-04-14T06:45:21.337Z,3.3
2023-04-14T06:46:35.585Z,2.7
2023-04-14T06:47:49.806Z,2.9
2023-04-14T06:49:04.040Z,4.6
2023-04-14T06:50:18.262Z,3.2
2023-04-14T06:51:32.577Z,3.8
2023-04-14T06:52:46.814Z,3.8
2023-04-14T06:54:01.042Z,3.6
2023-04-14T06:55:15.406Z,3
2023-04-14T06:56:29.631Z,3.1
2023-04-14T06:57:43.929Z,3.5
2023-04-14T06:58:58.181Z,2.9
2023-04-14T07:00:12.402Z,2.8
2023-04-14T07:01:26.630Z,2.6
2023-04-14T07:02:40.857Z,3
2023-04-14T07:03:55.155Z,3.1
2023-04-14T07:06:23.628Z,2.8
2023-04-14T07:07:37.975Z,2.9
2023-04-14T07:08:52.211Z,3.6
2023-04-14T07:10:06.503Z,2.9
2023-04-14T07:11:20.751Z,2.8
2023-04-14T07:12:34.976Z,2.5
2023-04-14T07:13:49.191Z,2.9
2023-04-14T07:15:03.418Z,2.7
2023-04-14T07:16:17.733Z,2.8
2023-04-14T07:17:31.961Z,2.8
2023-04-14T07:18:46.187Z,2.8
2023-04-14T07:20:00.425Z,2.5
2023-04-14T07:21:14.639Z,2.7
2023-04-14T07:22:28.942Z,2.7
2023-04-14T07:23:43.197Z,2.8
2023-04-14T07:24:57.411Z,2.7
2023-04-14T07:26:11.640Z,2.5
2023-04-14T07:27:26.005Z,2.1
2023-04-14T07:28:40.308Z,2.3
2023-04-14T07:29:54.570Z,2.8
2023-04-14T07:31:08.897Z,2.6
2023-04-14T07:33:37.356Z,2.2
2023-04-14T07:34:51.660Z,2.1
2023-04-14T07:36:05.896Z,2.2
2023-04-14T07:37:20.124Z,2.7
2023-04-14T07:38:34.350Z,2.4
2023-04-14T07:39:48.722Z,2.2
2023-04-14T07:42:17.256Z,2.4
2023-04-14T07:44:45.710Z,2.1
2023-04-14T07:45:59.943Z,2.6
2023-04-14T07:47:14.255Z,2.6
2023-04-14T07:48:28.483Z,2.3
2023-04-14T07:49:42.827Z,1.8
2023-04-14T07:50:57.061Z,2.1
2023-04-14T07:52:11.291Z,1.6
2023-04-14T07:53:25.591Z,2
2023-04-14T07:54:39.839Z,2.3
2023-04-14T07:55:54.052Z,1.4
2023-04-14T07:57:08.282Z,1.8
2023-04-14T07:58:22.503Z,1.6
2023-04-14T07:59:36.808Z,1.8
2023-04-14T08:00:51.060Z,2
2023-04-14T08:02:05.284Z,2.2
2023-04-14T08:03:19.498Z,2.2
2023-04-14T08:04:33.739Z,2.5
2023-04-14T08:05:48.037Z,1.7
2023-04-14T08:07:02.284Z,1.6
2023-04-14T08:08:16.494Z,2.1
2023-04-14T08:09:30.727Z,1.8
2023-04-14T08:10:44.962Z,2
2023-04-14T08:11:59.263Z,2.2
2023-04-14T08:13:13.501Z,1.5
2023-04-14T08:14:27.723Z,2
2023-04-14T08:15:41.941Z,2
2023-04-14T08:16:56.315Z,2
2023-04-14T08:19:24.849Z,1.5
2023-04-14T08:20:39.083Z,1.9
2023-04-14T08:21:53.426Z,1.9
2023-04-14T08:23:07.663Z,1.8
2023-04-14T08:24:21.969Z,1.8
2023-04-14T08:25:36.195Z,2.1
2023-04-14T08:28:04.655Z,1.7
2023-04-14T08:29:19.023Z,1.6
2023-04-14T08:30:33.329Z,1.9
2023-04-14T08:31:47.564Z,1.8
2023-04-14T08:33:01.788Z,2.1
2023-04-14T08:34:16.015Z,2
2023-04-14T08:35:30.240Z,2.3
2023-04-14T08:36:44.556Z,1.5
2023-04-14T08:37:58.798Z,1.8
2023-04-14T08:39:13.011Z,1.6
2023-04-14T08:41:41.473Z,1.7
2023-04-14T08:42:55.775Z,1.9
2023-04-14T08:44:10.015Z,2.3
2023-04-14T08:45:24.235Z,1.9
2023-04-14T08:46:38.464Z,1.6
2023-04-14T08:47:52.691Z,2.3
2023-04-14T08:49:06.999Z,1.7
2023-04-14T08:50:21.242Z,2
2023-04-14T08:51:35.464Z,1.4
2023-04-14T08:52:49.677Z,1.6
2023-04-14T08:54:03.917Z,1.4
2023-04-14T08:55:18.216Z,1.7
2023-04-14T08:56:32.460Z,1.7
2023-04-14T08:57:46.680Z,1.6
2023-04-14T08:59:00.897Z,1.7
2023-04-14T09:00:15.184Z,2
2023-04-14T09:01:29.492Z,1.5
2023-04-14T09:02:43.782Z,1.4
2023-04-14T09:03:57.070Z,1.6
2023-04-14T09:05:11.306Z,2
2023-04-14T09:06:25.606Z,1.5
2023-04-14T09:07:39.831Z,1.4
2023-04-14T09:08:54.070Z,1.6
2023-04-14T09:10:08.301Z,1.7
2023-04-14T09:11:22.510Z,1.8
2023-04-14T09:12:36.826Z,1.4
2023-04-14T09:13:51.066Z,1.5
2023-04-14T09:15:05.280Z,1.7
2023-04-14T09:16:19.512Z,1.6
2023-04-14T09:17:33.734Z,1.9
2023-04-14T09:18:48.032Z,2
2023-04-14T09:20:02.275Z,1.7
2023-04-14T09:21:16.506Z,2.2
2023-04-14T09:22:30.744Z,2.2
2023-04-14T09:23:44.959Z,1.7
2023-04-14T09:24:59.273Z,2.3
2023-04-14T09:26:13.515Z,2.5
2023-04-14T09:27:27.731Z,1.9
2023-04-14T09:28:41.966Z,1.9
2023-04-14T09:29:56.186Z,1.7
2023-04-14T09:31:10.484Z,1.9
2023-04-14T09:32:24.721Z,1.8
2023-04-14T09:33:38.954Z,1.6
2023-04-14T09:34:53.236Z,1.8
2023-04-14T09:36:06.534Z,2
2023-04-14T09:37:20.773Z,1.5
2023-04-14T09:38:35.002Z,2
2023-04-14T09:39:49.228Z,1.6
2023-04-14T09:41:03.464Z,1.6
2023-04-14T09:42:17.761Z,1.6
2023-04-14T09:43:31.996Z,1.8
2023-04-14T09:44:46.234Z,1.7
2023-04-14T09:46:00.461Z,1.7
2023-04-14T09:47:14.689Z,1.9
2023-04-14T09:48:28.987Z,1.7
2023-04-14T09:49:43.227Z,1.5
2023-04-14T09:50:57.445Z,1.8
2023-04-14T09:52:11.679Z,1.6
2023-04-14T09:53:25.901Z,2
2023-04-14T09:54:40.210Z,1.9
2023-04-14T09:55:54.452Z,2.3
2023-04-14T09:57:08.668Z,2.1
2023-04-14T09:58:22.908Z,1.9
2023-04-14T09:59:37.130Z,2
2023-04-14T10:00:51.422Z,1.9
2023-04-14T10:02:05.665Z,1.8
2023-04-14T10:03:19.894Z,1.9
2023-04-14T10:04:34.276Z,1.6
2023-04-14T10:05:48.487Z,1.7
2023-04-14T10:07:02.795Z,1.7
2023-04-14T10:08:17.044Z,2.3
2023-04-14T10:10:45.485Z,1.8
2023-04-14T10:11:59.720Z,1.8
2023-04-14T10:13:14.020Z,1.5
2023-04-14T10:14:28.259Z,1.9
2023-04-14T10:16:56.716Z,2
2023-04-14T10:18:10.948Z,1.9
2023-04-14T10:19:25.248Z,1.8
2023-04-14T10:21:53.722Z,2.8
2023-04-14T10:23:07.940Z,2.2
2023-04-14T10:24:22.173Z,2.1
2023-04-14T10:25:36.471Z,1.8
2023-04-14T10:26:50.701Z,1.9
2023-04-14T10:28:04.932Z,1.5
2023-04-14T10:29:19.166Z,1.8
2023-04-14T10:30:33.388Z,1.8
2023-04-14T10:31:47.699Z,1.9
2023-04-14T10:33:01.940Z,2.1
2023-04-14T10:34:16.157Z,2.1
2023-04-14T10:35:30.446Z,1.8
2023-04-14T10:36:43.796Z,2
2023-04-14T10:37:58.086Z,1.7
2023-04-14T10:40:25.588Z,2
2023-04-14T10:41:39.906Z,2.1
2023-04-14T10:42:54.147Z,2.3
2023-04-14T10:44:08.376Z,1.6
2023-04-14T10:45:22.601Z,2.5
2023-04-14T10:46:36.814Z,3
2023-04-14T10:47:51.128Z,2.3
2023-04-14T10:49:05.366Z,2.2
2023-04-14T10:50:19.704Z,2.1
2023-04-14T10:51:33.933Z,1.7
2023-04-14T10:52:48.169Z,2.1
2023-04-14T10:54:02.476Z,1.6
2023-04-14T10:55:16.721Z,1.6
2023-04-14T10:56:30.929Z,3
2023-04-14T10:57:45.156Z,1.7
2023-04-14T10:58:59.385Z,1.6
2023-04-14T11:00:13.692Z,1.9
2023-04-14T11:01:27.930Z,2
2023-04-14T11:02:42.152Z,1.7
2023-04-14T11:03:56.380Z,2
2023-04-14T11:05:10.615Z,2.3
2023-04-14T11:06:24.907Z,2
2023-04-14T11:07:39.151Z,1.9
2023-04-14T11:08:53.381Z,2.1
2023-04-14T11:10:07.603Z,2.2
2023-04-14T11:11:21.839Z,1.9
2023-04-14T11:12:36.137Z,2
2023-04-14T11:13:50.376Z,2.1
2023-04-14T11:15:04.602Z,2.1
2023-04-14T11:16:18.836Z,2.1
2023-04-14T11:17:33.056Z,2.1
2023-04-14T11:18:47.358Z,2.1
2023-04-14T11:20:01.607Z,2.2
2023-04-14T11:21:15.825Z,2.4
2023-04-14T11:22:30.052Z,2
2023-04-14T11:23:44.281Z,2.6
2023-04-14T11:24:58.585Z,2.1
2023-04-14T11:26:12.817Z,1.9
2023-04-14T11:27:27.051Z,2.1
2023-04-14T11:28:41.265Z,2.4
2023-04-14T11:29:55.490Z,2.7
2023-04-14T11:31:09.800Z,2
2023-04-14T11:32:24.042Z,2.7
2023-04-14T11:33:38.260Z,2.3
2023-04-14T11:36:06.775Z,2.5
2023-04-14T11:37:21.088Z,2.5
2023-04-14T11:38:35.373Z,1.8
2023-04-14T11:39:48.653Z,2.2
2023-04-14T11:41:02.890Z,2.9
2023-04-14T11:42:17.188Z,2.2
2023-04-14T11:43:31.420Z,2.6
2023-04-14T11:44:45.662Z,2.4
2023-04-14T11:45:59.877Z,2.4
2023-04-14T11:47:14.100Z,2.1
2023-04-14T11:48:28.409Z,2.4
2023-04-14T11:49:42.641Z,2.6
2023-04-14T11:52:11.219Z,2.3
2023-04-14T11:53:25.458Z,2.2
2023-04-14T11:54:39.761Z,2.1
2023-04-14T11:55:54.003Z,2.6
2023-04-14T11:57:08.216Z,2.2
2023-04-14T11:58:22.450Z,2.6
2023-04-14T11:59:36.673Z,2.1
2023-04-14T12:00:50.967Z,2.3
2023-04-14T12:02:05.225Z,2.2
2023-04-14T12:03:19.436Z,2.4
2023-04-14T12:04:33.661Z,2.6
2023-04-14T12:05:47.891Z,2.6
2023-04-14T12:07:02.190Z,2.2
2023-04-14T12:08:16.433Z,1.7
2023-04-14T12:09:30.659Z,1.9
2023-04-14T12:10:44.888Z,2.1
2023-04-14T12:11:59.125Z,2.3
2023-04-14T12:13:13.422Z,2.1
2023-04-14T12:14:27.655Z,2.1
2023-04-14T12:15:41.892Z,1.9
2023-04-14T12:16:56.109Z,2.5
2023-04-14T12:18:10.348Z,2.6
2023-04-14T12:20:38.885Z,2.6
2023-04-14T12:21:53.101Z,2.2
2023-04-14T12:23:07.480Z,2.1
2023-04-14T12:24:21.707Z,2.6
2023-04-14T12:25:35.999Z,2
2023-04-14T12:28:04.474Z,2
2023-04-14T12:29:18.692Z,2.2
2023-04-14T12:30:32.929Z,2.6
2023-04-14T12:31:47.225Z,2.2
2023-04-14T12:33:01.471Z,2.4
2023-04-14T12:34:15.689Z,2.4
2023-04-14T12:35:29.916Z,2.4
2023-04-14T12:36:44.144Z,2.2
2023-04-14T12:37:58.450Z,1.8
2023-04-14T12:39:12.687Z,1.9
2023-04-14T12:40:26.925Z,1.7
2023-04-14T12:41:41.141Z,2.4
2023-04-14T12:42:55.362Z,2.2
2023-04-14T12:44:09.663Z,1.9
2023-04-14T12:45:23.920Z,1.6
2023-04-14T12:46:38.133Z,2.3
2023-04-14T12:47:52.479Z,2.1
2023-04-14T12:49:06.714Z,2.2
2023-04-14T12:50:21.012Z,2.1
2023-04-14T12:51:35.260Z,1.8
2023-04-14T12:52:49.492Z,1.9
2023-04-14T12:54:03.705Z,2.2
2023-04-14T12:55:17.937Z,1.5
2023-04-14T12:56:32.232Z,1.7
2023-04-14T12:57:46.476Z,1.6
2023-04-14T12:59:00.707Z,1.6
2023-04-14T13:00:14.929Z,1.7
2023-04-14T13:01:29.157Z,1.7
2023-04-14T13:02:43.463Z,1.5
2023-04-14T13:03:57.704Z,1.5
2023-04-14T13:05:11.918Z,1.6
2023-04-14T13:06:26.154Z,1.7
2023-04-14T13:07:40.533Z,1.5
2023-04-14T13:08:54.816Z,1.5
2023-04-14T13:10:09.066Z,1.5
2023-04-14T13:11:23.288Z,1.9
2023-04-14T13:12:37.666Z,1.7
2023-04-14T13:13:51.884Z,1.8
2023-04-14T13:16:20.438Z,1.7
2023-04-14T13:17:34.658Z,1.4
2023-04-14T13:18:48.890Z,1.4
2023-04-14T13:20:03.119Z,1.5
2023-04-14T13:21:17.406Z,1.5
2023-04-14T13:22:31.660Z,1.8
2023-04-14T13:23:45.887Z,1.3
2023-04-14T13:25:00.100Z,1.9
2023-04-14T13:26:14.341Z,1.9
2023-04-14T13:27:28.635Z,1.7
2023-04-14T13:28:42.881Z,1.7
2023-04-14T13:29:57.212Z,2.1
2023-04-14T13:31:11.452Z,1.6
2023-04-14T13:32:25.665Z,1.8
2023-04-14T13:33:39.968Z,1.8
2023-04-14T13:34:54.211Z,1.3
2023-04-14T13:36:08.447Z,1.8
2023-04-14T13:37:22.679Z,1.3
2023-04-14T13:38:36.899Z,1.6
2023-04-14T13:39:51.195Z,1.5
2023-04-14T13:41:05.444Z,1.5
2023-04-14T13:42:19.664Z,1.7
2023-04-14T13:43:33.892Z,1.3
2023-04-14T13:44:48.253Z,1.1
2023-04-14T13:46:02.552Z,1.4
2023-04-14T13:47:16.792Z,1.3
2023-04-14T13:48:31.176Z,1.5
2023-04-14T13:49:45.393Z,1.5
2023-04-14T13:50:59.614Z,1.4
2023-04-14T13:52:13.923Z,2
2023-04-14T13:53:28.156Z,1.5
2023-04-14T13:54:42.394Z,1.2
2023-04-14T13:55:56.614Z,1.5
2023-04-14T13:57:10.843Z,1.4
2023-04-14T13:58:25.148Z,1.4
2023-04-14T13:59:39.387Z,1.6
2023-04-14T14:00:53.605Z,1.8
2023-04-14T14:02:07.839Z,1.7
2023-04-14T14:03:22.073Z,1.7
2023-04-14T14:04:36.355Z,1.8
2023-04-14T14:05:50.614Z,1.6
2023-04-14T14:07:04.834Z,1.8
2023-04-14T14:08:19.066Z,1.9
2023-04-14T14:09:33.286Z,1.7
2023-04-14T14:10:47.591Z,2
2023-04-14T14:12:01.833Z,2.2
2023-04-14T14:13:16.054Z,1.8
2023-04-14T14:14:30.418Z,1.7
2023-04-14T14:15:44.645Z,1.9
2023-04-14T14:16:58.951Z,2
2023-04-14T14:18:13.192Z,2.8
2023-04-14T14:19:27.565Z,2
2023-04-14T14:20:41.906Z,1.8
2023-04-14T14:21:56.147Z,1.7
2023-04-14T14:23:10.441Z,2
2023-04-14T14:24:24.682Z,2.3
2023-04-14T14:25:38.902Z,2
2023-04-14T14:26:53.138Z,2
2023-04-14T14:28:07.352Z,1.7
2023-04-14T14:29:21.668Z,1.8
2023-04-14T14:30:35.905Z,1.7
2023-04-14T14:31:50.126Z,2.4
2023-04-14T14:33:04.353Z,2
2023-04-14T14:34:18.590Z,2
2023-04-14T14:35:32.877Z,2
2023-04-14T14:36:47.115Z,1.9
2023-04-14T14:38:01.351Z,2.1
2023-04-14T14:39:15.567Z,2.1
2023-04-14T14:40:29.807Z,1.9
2023-04-14T14:41:44.095Z,2.3
2023-04-14T14:42:58.351Z,2
2023-04-14T14:44:12.569Z,1.8
2023-04-14T14:45:26.797Z,2
2023-04-14T14:46:41.017Z,2.2
2023-04-14T14:47:55.324Z,2.1
2023-04-14T14:49:09.570Z,1.7
2023-04-14T14:50:23.782Z,1.8
2023-04-14T14:51:38.017Z,1.7
2023-04-14T14:54:06.538Z,1.6
2023-04-14T14:55:20.794Z,1.5
2023-04-14T14:56:35.010Z,2.1
2023-04-14T14:57:49.240Z,2
2023-04-14T14:59:03.470Z,1.7
2023-04-14T15:00:17.770Z,1.5
2023-04-14T15:01:32.006Z,1.5
2023-04-14T15:02:46.000Z,1.5
2023-04-14T15:04:00.463Z,2
2023-04-14T15:05:14.689Z,1.7
2023-04-14T15:06:29.052Z,1.6
2023-04-14T15:07:43.325Z,1.8
2023-04-14T15:08:56.618Z,1.4
2023-04-14T15:10:10.859Z,1.7
2023-04-14T15:11:25.162Z,2
2023-04-14T15:12:39.388Z,1.7
2023-04-14T15:13:53.630Z,1.9
2023-04-14T15:15:07.847Z,1.9
2023-04-14T15:16:22.083Z,1.8
2023-04-14T15:17:36.365Z,1.8
2023-04-14T15:18:50.608Z,1.8
2023-04-14T15:20:04.833Z,1.7
2023-04-14T15:21:19.070Z,1.8
2023-04-14T15:22:33.288Z,2.1
2023-04-14T15:23:47.584Z,1.9
2023-04-14T15:25:01.844Z,2.2
2023-04-14T15:26:16.067Z,2.1
2023-04-14T15:27:30.277Z,2.4
2023-04-14T15:28:44.513Z,1.7
2023-04-14T15:29:58.810Z,2.1
2023-04-14T15:31:13.054Z,2
2023-04-14T15:32:27.281Z,2.4
2023-04-14T15:33:41.497Z,2.3
2023-04-14T15:34:55.731Z,1.7
2023-04-14T15:36:10.032Z,2.3
2023-04-14T15:38:38.494Z,2
2023-04-14T15:39:52.780Z,1.8
2023-04-14T15:41:06.083Z,1.9
2023-04-14T15:42:20.325Z,1.7
2023-04-14T15:43:34.551Z,2.1
2023-04-14T15:44:48.785Z,1.9
2023-04-14T15:46:03.000Z,2.2
2023-04-14T15:47:17.298Z,1.9
2023-04-14T15:48:31.551Z,2.3
2023-04-14T15:49:45.773Z,2.2
2023-04-14T15:51:00.004Z,2
2023-04-14T15:52:14.226Z,1.9
2023-04-14T15:53:28.519Z,1.8
2023-04-14T15:54:42.773Z,2.2
2023-04-14T15:55:57.121Z,1.7
2023-04-14T15:57:11.334Z,1.7
2023-04-14T15:58:25.558Z,1.7
2023-04-14T15:59:39.868Z,1.6
2023-04-14T16:00:54.115Z,1.6
2023-04-14T16:02:08.327Z,1.6
2023-04-14T16:03:22.560Z,1.7
2023-04-14T16:04:36.782Z,2
2023-04-14T16:05:51.084Z,1.7
2023-04-14T16:07:05.320Z,1.7
2023-04-14T16:08:19.701Z,2
2023-04-14T16:09:33.919Z,1.6
2023-04-14T16:10:48.140Z,1.9
2023-04-14T16:12:02.452Z,1.8
2023-04-14T16:13:16.691Z,2
2023-04-14T16:14:30.912Z,1.8
2023-04-14T16:15:45.266Z,1.8
2023-04-14T16:16:59.489Z,1.6
2023-04-14T16:18:13.784Z,1.8
2023-04-14T16:19:28.039Z,1.9
2023-04-14T16:20:42.257Z,1.9
2023-04-14T16:21:56.489Z,2.2
2023-04-14T16:23:10.701Z,2.2
2023-04-14T16:24:25.008Z,2
2023-04-14T16:25:39.246Z,1.8
2023-04-14T16:26:53.471Z,1.3
2023-04-14T16:28:07.702Z,1.5
2023-04-14T16:29:21.933Z,1.7
2023-04-14T16:30:36.241Z,1.9
2023-04-14T16:31:50.473Z,1.9
2023-04-14T16:33:04.814Z,1.7
2023-04-14T16:34:19.048Z,1.7
2023-04-14T16:35:33.412Z,1.7
2023-04-14T16:36:47.710Z,1.8
2023-04-14T16:38:01.960Z,1.6
2023-04-14T16:39:16.190Z,1.7
2023-04-14T16:41:44.645Z,1.8
2023-04-14T16:42:58.946Z,1.7
2023-04-14T16:44:13.184Z,1.7
2023-04-14T16:45:27.401Z,1.5
2023-04-14T16:46:41.624Z,1.4
2023-04-14T16:47:55.854Z,1.9
2023-04-14T16:49:10.169Z,1.6
2023-04-14T16:50:24.407Z,1.5
2023-04-14T16:51:38.630Z,1.8
2023-04-14T16:52:52.978Z,2.1
2023-04-14T16:54:07.203Z,1.8
2023-04-14T16:55:21.508Z,2.2
2023-04-14T16:56:35.736Z,1.4
2023-04-14T16:57:49.978Z,1.4
2023-04-14T16:59:04.203Z,1.7
2023-04-14T17:00:18.415Z,1.4
2023-04-14T17:01:32.725Z,1.7
2023-04-14T17:02:46.964Z,1.8
2023-04-14T17:04:01.187Z,1.5
2023-04-14T17:05:15.568Z,1.5
2023-04-14T17:06:29.794Z,1.7
2023-04-14T17:07:44.084Z,1.4
2023-04-14T17:08:58.337Z,1.5
2023-04-14T17:10:12.555Z,1.4
2023-04-14T17:11:26.790Z,1.3
2023-04-14T17:12:41.014Z,1.6
2023-04-14T17:13:55.307Z,1.4
2023-04-14T17:15:09.555Z,1.2
2023-04-14T17:16:23.781Z,1.3
2023-04-14T17:17:38.010Z,1.6
2023-04-14T17:18:52.235Z,1.5
2023-04-14T17:20:06.530Z,1.3
2023-04-14T17:21:20.773Z,1.6
2023-04-14T17:22:35.001Z,1.6
2023-04-14T17:23:49.242Z,1.4
2023-04-14T17:25:03.444Z,1.5
2023-04-14T17:26:17.742Z,1.5
2023-04-14T17:27:31.986Z,1.4
2023-04-14T17:28:46.214Z,1.6
2023-04-14T17:30:00.573Z,1.4
2023-04-14T17:31:14.798Z,1.4
2023-04-14T17:32:29.102Z,1.4
2023-04-14T17:33:43.332Z,2.1
2023-04-14T17:34:57.563Z,1.2
2023-04-14T17:36:11.791Z,1.5
2023-04-14T17:37:26.018Z,1.5
2023-04-14T17:38:40.313Z,1.6
2023-04-14T17:39:54.558Z,1.7
2023-04-14T17:41:08.785Z,1.2
2023-04-14T17:42:22.998Z,1.7
2023-04-14T17:43:37.228Z,1.5
2023-04-14T17:44:51.537Z,1.5
2023-04-14T17:46:05.782Z,1.4
2023-04-14T17:48:34.379Z,1.6